createdAt,value
2022-08-17T00:00:34.234Z,74.25
2022-08-17T00:03:31.640Z,72.55
2022-08-17T00:06:14.040Z,73.08
2022-08-17T00:08:53.984Z,73.30
2022-08-17T00:11:30.956Z,74.06
2022-08-17T00:14:09.650Z,73.70
2022-08-17T00:16:50.448Z,74.00
2022-08-17T00:19:26.606Z,74.24
2022-08-17T00:22:32.622Z,75.26
2022-08-17T00:24:47.215Z,73.80
2022-08-17T00:27:14.242Z,73.41
2022-08-17T00:29:42.163Z,74.89
2022-08-17T00:33:11.614Z,76.34
2022-08-17T00:34:56.119Z,78.60
2022-08-17T00:37:23.097Z,79.54
2022-08-17T00:39:50.189Z,80.15
2022-08-17T00:42:19.749Z,80.48
2022-08-17T00:44:46.944Z,80.60
2022-08-17T00:47:14.000Z,81.12
2022-08-17T00:49:41.171Z,79.60
2022-08-17T00:52:20.474Z,78.60
2022-08-17T00:54:49.746Z,76.88
2022-08-17T00:57:31.256Z,76.17
2022-08-17T01:00:27.360Z,74.64
2022-08-17T01:03:08.395Z,74.55
2022-08-17T01:05:38.831Z,75.75
2022-08-17T01:08:15.185Z,76.03
2022-08-17T01:10:58.691Z,76.69
2022-08-17T01:13:40.989Z,79.42
2022-08-17T01:16:19.052Z,80.48
2022-08-17T01:18:52.211Z,79.43
2022-08-17T01:22:14.403Z,76.55
2022-08-17T01:24:59.998Z,73.83
2022-08-17T01:27:28.543Z,73.62
2022-08-17T01:30:02.680Z,73.67
2022-08-17T01:32:30.391Z,75.58
2022-08-17T01:34:58.349Z,75.66
2022-08-17T01:37:42.550Z,77.52
2022-08-17T01:40:39.985Z,79.17
2022-08-17T01:43:30.082Z,80.78
2022-08-17T01:46:02.463Z,80.60
2022-08-17T01:48:38.225Z,81.02
2022-08-17T01:51:07.514Z,80.35
2022-08-17T01:53:44.268Z,79.55
2022-08-17T01:56:17.253Z,78.63
2022-08-17T01:58:44.887Z,77.88
2022-08-17T02:01:14.579Z,76.35
2022-08-17T02:03:42.063Z,76.83
2022-08-17T02:06:27.658Z,76.82
2022-08-17T02:09:01.526Z,77.47
2022-08-17T02:11:34.345Z,76.74
2022-08-17T02:14:03.009Z,76.50
2022-08-17T02:16:38.428Z,76.46
2022-08-17T02:19:15.622Z,76.58
2022-08-17T02:21:50.173Z,76.56
2022-08-17T02:24:58.875Z,78.49
2022-08-17T02:27:18.575Z,80.86
2022-08-17T02:29:45.623Z,81.37
2022-08-17T02:32:28.495Z,82.64
2022-08-17T02:34:58.398Z,82.59
2022-08-17T02:37:28.189Z,83.44
2022-08-17T02:39:57.159Z,83.39
2022-08-17T02:42:44.426Z,82.11
2022-08-17T02:45:18.278Z,81.43
2022-08-17T02:47:45.907Z,81.17
2022-08-17T02:50:16.502Z,79.82
2022-08-17T02:52:53.253Z,80.45
2022-08-17T02:55:35.302Z,79.85
2022-08-17T02:58:03.646Z,80.48
2022-08-17T03:00:41.070Z,81.61
2022-08-17T03:03:10.739Z,81.41
2022-08-17T03:05:38.632Z,82.45
2022-08-17T03:08:07.212Z,83.76
2022-08-17T03:10:39.960Z,83.64
2022-08-17T03:13:07.422Z,84.19
2022-08-17T03:15:35.304Z,82.32
2022-08-17T03:18:03.719Z,81.44
2022-08-17T03:20:33.799Z,80.95
2022-08-17T03:23:01.887Z,80.55
2022-08-17T03:25:42.748Z,82.79
2022-08-17T03:28:12.230Z,83.67
2022-08-17T03:30:40.319Z,82.69
2022-08-17T03:33:12.148Z,83.37
2022-08-17T03:35:41.087Z,83.55
2022-08-17T03:38:11.355Z,83.35
2022-08-17T03:40:57.942Z,82.02
2022-08-17T03:43:30.845Z,83.47
2022-08-17T03:46:27.252Z,84.82
2022-08-17T03:49:15.697Z,85.09
2022-08-17T03:52:01.236Z,85.23
2022-08-17T03:54:46.809Z,85.03
2022-08-17T03:57:14.170Z,84.85
2022-08-17T03:59:41.663Z,84.40
2022-08-17T04:02:18.952Z,83.18
2022-08-17T04:04:46.681Z,82.48
2022-08-17T04:07:13.705Z,82.32
2022-08-17T04:09:40.708Z,82.76
2022-08-17T04:12:07.837Z,83.08
2022-08-17T04:14:53.147Z,83.84
2022-08-17T04:17:28.621Z,83.55
2022-08-17T04:19:56.073Z,83.77
2022-08-17T04:22:31.262Z,84.20
2022-08-17T04:25:19.016Z,84.09
2022-08-17T04:27:46.149Z,85.24
2022-08-17T04:30:14.500Z,84.82
2022-08-17T04:33:15.791Z,84.85
2022-08-17T04:35:51.430Z,84.37
2022-08-17T04:38:24.380Z,83.28
2022-08-17T04:41:10.845Z,81.36
2022-08-17T04:43:43.005Z,81.08
2022-08-17T04:46:19.726Z,81.34
2022-08-17T04:48:53.646Z,79.95
2022-08-17T04:51:36.484Z,78.15
2022-08-17T04:54:15.951Z,77.77
2022-08-17T04:56:43.551Z,77.59
2022-08-17T04:59:21.107Z,78.60
2022-08-17T05:01:52.528Z,78.08
2022-08-17T05:04:33.938Z,78.27
2022-08-17T05:07:04.445Z,76.99
2022-08-17T05:09:31.912Z,76.70
2022-08-17T05:12:02.554Z,76.44
2022-08-17T05:14:33.069Z,75.98
2022-08-17T05:17:02.019Z,75.66
2022-08-17T05:19:34.460Z,75.00
2022-08-17T05:22:06.192Z,74.13
2022-08-17T05:24:40.731Z,73.28
2022-08-17T05:27:11.034Z,70.10
2022-08-17T05:29:46.185Z,70.65
2022-08-17T05:32:38.392Z,69.25
2022-08-17T05:35:01.260Z,70.70
2022-08-17T05:37:28.680Z,71.00
2022-08-17T05:39:56.033Z,70.67
2022-08-17T05:42:23.998Z,69.68
2022-08-17T05:44:51.050Z,69.89
2022-08-17T05:47:18.775Z,68.30
2022-08-17T05:49:48.279Z,66.54
2022-08-17T05:53:15.570Z,65.08
2022-08-17T05:56:29.337Z,63.42
2022-08-17T05:59:48.570Z,63.00
2022-08-17T06:02:51.411Z,67.09
2022-08-17T06:06:04.157Z,66.52
2022-08-17T06:09:22.862Z,64.66
2022-08-17T06:12:35.728Z,62.23
2022-08-17T06:15:30.736Z,62.21
2022-08-17T06:18:08.192Z,63.23
2022-08-17T06:20:59.823Z,60.50
2022-08-17T06:23:43.326Z,59.00
2022-08-17T06:26:25.895Z,60.37
2022-08-17T06:29:18.815Z,58.62
2022-08-17T06:31:46.058Z,58.17
2022-08-17T06:34:13.535Z,57.66
2022-08-17T06:37:09.051Z,57.12
2022-08-17T06:40:37.183Z,54.75
2022-08-17T06:43:48.797Z,53.98
2022-08-17T06:46:48.460Z,53.91
2022-08-17T06:49:33.681Z,54.14
2022-08-17T06:52:45.826Z,53.75
2022-08-17T06:55:45.158Z,52.03
2022-08-17T06:58:16.461Z,53.59
2022-08-17T07:00:47.657Z,50.81
2022-08-17T07:03:55.719Z,51.10
2022-08-17T07:06:32.317Z,51.56
2022-08-17T07:09:37.673Z,50.27
2022-08-17T07:12:27.932Z,50.20
2022-08-17T07:15:21.670Z,50.45
2022-08-17T07:17:49.446Z,51.22
2022-08-17T07:20:22.697Z,50.96
2022-08-17T07:23:28.661Z,49.50
2022-08-17T07:26:09.025Z,49.55
2022-08-17T07:28:38.549Z,47.69
2022-08-17T07:31:06.851Z,47.97
2022-08-17T07:33:36.772Z,47.89
2022-08-17T07:36:04.300Z,46.06
2022-08-17T07:38:35.425Z,47.45
2022-08-17T07:41:08.347Z,45.42
2022-08-17T07:43:40.860Z,45.96
2022-08-17T07:46:52.656Z,44.83
2022-08-17T07:49:31.700Z,44.82
2022-08-17T07:52:51.274Z,43.67
2022-08-17T07:55:35.013Z,42.97
2022-08-17T07:58:03.366Z,43.52
2022-08-17T08:00:33.054Z,42.38
2022-08-17T08:03:20.585Z,42.02
2022-08-17T08:06:03.003Z,41.83
2022-08-17T08:08:42.685Z,41.82
2022-08-17T08:11:28.312Z,43.40
2022-08-17T08:13:55.301Z,42.93
2022-08-17T08:16:31.306Z,41.22
2022-08-17T08:19:01.933Z,41.70
2022-08-17T08:22:22.591Z,40.62
2022-08-17T08:25:22.900Z,42.04
2022-08-17T08:28:21.285Z,40.46
2022-08-17T08:30:58.586Z,39.89
2022-08-17T08:33:56.523Z,41.22
2022-08-17T08:37:17.593Z,39.74
2022-08-17T08:40:08.303Z,38.38
2022-08-17T08:43:22.321Z,39.59
2022-08-17T08:46:20.001Z,38.00
2022-08-17T08:50:04.732Z,40.41
2022-08-17T08:53:05.054Z,38.61
2022-08-17T08:55:59.970Z,37.32
2022-08-17T08:59:23.969Z,37.26
2022-08-17T09:02:09.502Z,35.84
2022-08-17T09:05:14.483Z,37.13
2022-08-17T09:08:27.364Z,38.99
2022-08-17T09:11:17.313Z,34.69
2022-08-17T09:14:21.895Z,35.24
2022-08-17T09:17:13.804Z,35.98
2022-08-17T09:19:56.254Z,37.25
2022-08-17T09:22:42.667Z,35.69
2022-08-17T09:25:23.290Z,37.20
2022-08-17T09:28:00.915Z,37.75
2022-08-17T09:30:45.408Z,37.22
2022-08-17T09:33:23.034Z,36.26
2022-08-17T09:36:11.458Z,35.77
2022-08-17T09:39:07.245Z,34.71
2022-08-17T09:41:56.221Z,34.55
2022-08-17T09:44:53.465Z,33.00
2022-08-17T09:47:47.443Z,35.21
2022-08-17T09:51:03.771Z,36.16
2022-08-17T09:53:23.649Z,35.74
2022-08-17T09:56:43.748Z,37.12
2022-08-17T10:00:18.647Z,35.79
2022-08-17T10:03:21.991Z,35.51
2022-08-17T10:06:27.368Z,34.32
2022-08-17T10:09:17.172Z,34.04
2022-08-17T10:12:11.399Z,35.48
2022-08-17T10:15:50.434Z,33.39
2022-08-17T10:18:47.715Z,33.02
2022-08-17T10:21:37.622Z,32.73
2022-08-17T10:25:21.578Z,32.79
2022-08-17T10:27:54.026Z,33.01
2022-08-17T10:30:28.064Z,32.12
2022-08-17T10:33:12.826Z,31.95
2022-08-17T10:35:53.606Z,32.14
2022-08-17T10:38:34.012Z,32.26
2022-08-17T10:41:36.931Z,31.71
2022-08-17T10:44:38.043Z,33.62
2022-08-17T10:47:18.183Z,35.82
2022-08-17T10:49:54.194Z,32.77
2022-08-17T10:52:24.841Z,32.70
2022-08-17T10:54:51.926Z,32.86
2022-08-17T10:57:33.717Z,29.75
2022-08-17T11:00:25.516Z,34.26
2022-08-17T11:02:57.432Z,34.10
2022-08-17T11:06:06.519Z,32.66
2022-08-17T11:09:26.245Z,33.96
2022-08-17T11:12:37.545Z,32.98
2022-08-17T11:16:16.766Z,31.50
2022-08-17T11:19:14.228Z,30.73
2022-08-17T11:22:42.033Z,30.22
2022-08-17T11:25:22.608Z,30.66
2022-08-17T11:28:05.115Z,32.76
2022-08-17T11:30:57.838Z,31.42
2022-08-17T11:33:34.210Z,31.98
2022-08-17T11:36:16.342Z,32.37
2022-08-17T11:39:21.394Z,33.74
2022-08-17T11:42:54.117Z,33.41
2022-08-17T11:46:13.654Z,32.16
2022-08-17T11:49:11.193Z,32.40
2022-08-17T11:52:34.377Z,31.29
2022-08-17T11:55:17.991Z,31.65
2022-08-17T11:58:25.430Z,28.79
2022-08-17T12:00:58.398Z,30.92
2022-08-17T12:03:31.845Z,31.18
2022-08-17T12:06:30.246Z,28.79
2022-08-17T12:09:15.828Z,29.17
2022-08-17T12:12:13.431Z,31.10
2022-08-17T12:15:10.076Z,31.23
2022-08-17T12:17:41.070Z,29.89
2022-08-17T12:20:38.582Z,29.36
2022-08-17T12:23:44.301Z,29.02
2022-08-17T12:26:30.161Z,28.76
2022-08-17T12:29:18.123Z,29.52
2022-08-17T12:32:03.486Z,27.99
2022-08-17T12:34:42.517Z,28.97
2022-08-17T12:37:27.401Z,29.83
2022-08-17T12:40:16.577Z,27.74
2022-08-17T12:43:21.805Z,29.87
2022-08-17T12:46:13.340Z,28.07
2022-08-17T12:48:59.344Z,26.70
2022-08-17T12:51:28.949Z,28.29
2022-08-17T12:53:56.314Z,30.83
2022-08-17T12:56:23.462Z,30.49
2022-08-17T12:58:56.596Z,30.16
2022-08-17T13:01:26.074Z,32.14
2022-08-17T13:03:59.637Z,30.25
2022-08-17T13:06:35.206Z,30.16
2022-08-17T13:09:22.506Z,28.98
2022-08-17T13:12:05.175Z,28.04
2022-08-17T13:14:33.355Z,27.78
2022-08-17T13:17:09.728Z,28.87
2022-08-17T13:19:49.941Z,27.55
2022-08-17T13:22:24.620Z,28.07
2022-08-17T13:24:58.209Z,30.16
2022-08-17T13:27:28.098Z,29.81
2022-08-17T13:30:02.179Z,29.16
2022-08-17T13:32:43.861Z,28.97
2022-08-17T13:35:50.107Z,28.52
2022-08-17T13:38:49.461Z,28.94
2022-08-17T13:41:46.928Z,30.85
2022-08-17T13:44:40.306Z,29.81
2022-08-17T13:47:27.771Z,29.08
2022-08-17T13:49:55.511Z,31.53
2022-08-17T13:52:43.515Z,29.75
2022-08-17T13:55:22.597Z,30.16
2022-08-17T13:58:07.017Z,30.70
2022-08-17T14:00:36.664Z,29.55
2022-08-17T14:03:05.598Z,29.91
2022-08-17T14:05:33.751Z,29.24
2022-08-17T14:08:06.797Z,30.93
2022-08-17T14:10:36.319Z,29.82
2022-08-17T14:13:04.959Z,29.66
2022-08-17T14:15:56.005Z,29.50
2022-08-17T14:18:51.995Z,28.61
2022-08-17T14:21:08.413Z,29.35
2022-08-17T14:23:37.179Z,30.20
2022-08-17T14:26:04.833Z,30.12
2022-08-17T14:28:32.326Z,30.78
2022-08-17T14:31:01.111Z,30.39
2022-08-17T14:33:30.968Z,30.96
2022-08-17T14:35:58.173Z,30.44
2022-08-17T14:38:25.118Z,30.06
2022-08-17T14:40:52.503Z,30.44
2022-08-17T14:43:20.420Z,29.87
2022-08-17T14:45:47.701Z,29.45
2022-08-17T14:48:14.757Z,29.95
2022-08-17T14:50:43.748Z,29.86
2022-08-17T14:53:14.079Z,29.14
2022-08-17T14:55:41.323Z,28.95
2022-08-17T14:58:09.066Z,29.42
2022-08-17T15:00:39.889Z,29.86
2022-08-17T15:03:06.935Z,29.70
2022-08-17T15:05:37.799Z,30.56
2022-08-17T15:08:06.418Z,29.94
2022-08-17T15:10:34.044Z,29.10
2022-08-17T15:13:01.581Z,30.36
2022-08-17T15:15:29.327Z,30.83
2022-08-17T15:17:57.114Z,30.52
2022-08-17T15:20:29.600Z,30.30
2022-08-17T15:22:58.952Z,29.51
2022-08-17T15:25:31.920Z,30.09
2022-08-17T15:28:00.526Z,31.07
2022-08-17T15:30:28.063Z,30.76
2022-08-17T15:33:01.791Z,31.31
2022-08-17T15:35:33.862Z,30.86
2022-08-17T15:38:11.833Z,31.63
2022-08-17T15:40:45.333Z,31.02
2022-08-17T15:43:27.008Z,31.08
2022-08-17T15:46:19.307Z,31.60
2022-08-17T15:48:53.382Z,31.63
2022-08-17T15:51:30.996Z,31.50
2022-08-17T15:54:17.234Z,31.26
2022-08-17T15:56:49.405Z,29.86
2022-08-17T15:59:16.414Z,29.30
2022-08-17T16:03:15.105Z,30.94
2022-08-17T16:04:31.739Z,30.18
2022-08-17T16:07:00.054Z,30.58
2022-08-17T16:09:27.643Z,30.40
2022-08-17T16:11:56.060Z,29.44
2022-08-17T16:14:30.236Z,28.25
2022-08-17T16:17:00.618Z,28.84
2022-08-17T16:19:27.701Z,29.87
2022-08-17T16:21:54.705Z,29.04
2022-08-17T16:24:21.915Z,29.52
2022-08-17T16:26:48.880Z,29.37
2022-08-17T16:29:15.892Z,30.47
2022-08-17T16:31:43.243Z,30.65
2022-08-17T16:34:17.717Z,29.22
2022-08-17T16:36:54.750Z,30.59
2022-08-17T16:39:28.815Z,31.27
2022-08-17T16:41:57.156Z,31.53
2022-08-17T16:44:25.628Z,31.57
2022-08-17T16:46:53.344Z,31.34
2022-08-17T16:49:35.865Z,31.78
2022-08-17T16:52:12.497Z,31.93
2022-08-17T16:54:44.321Z,31.90
2022-08-17T16:57:13.970Z,32.07
2022-08-17T16:59:45.016Z,31.42
2022-08-17T17:02:27.639Z,31.18
2022-08-17T17:05:27.201Z,31.94
2022-08-17T17:08:25.591Z,32.85
2022-08-17T17:10:55.894Z,33.06
2022-08-17T17:13:40.442Z,31.76
2022-08-17T17:16:50.415Z,33.35
2022-08-17T17:19:48.248Z,32.72
2022-08-17T17:22:21.707Z,34.02
2022-08-17T17:25:20.066Z,34.10
2022-08-17T17:28:24.697Z,35.37
2022-08-17T17:31:46.009Z,34.28
2022-08-17T17:34:16.482Z,35.17
2022-08-17T17:36:59.831Z,35.53
2022-08-17T17:39:44.223Z,35.83
2022-08-17T17:42:20.175Z,36.09
2022-08-17T17:45:15.888Z,35.73
2022-08-17T17:47:44.576Z,35.91
2022-08-17T17:50:12.023Z,36.21
2022-08-17T17:53:09.443Z,37.07
2022-08-17T17:56:33.098Z,36.36
2022-08-17T17:59:12.745Z,36.85
2022-08-17T18:02:03.885Z,36.77
2022-08-17T18:04:55.794Z,37.36
2022-08-17T18:07:42.809Z,37.60
2022-08-17T18:10:43.258Z,39.01
2022-08-17T18:13:54.123Z,38.79
2022-08-17T18:16:22.502Z,39.99
2022-08-17T18:18:52.535Z,39.49
2022-08-17T18:21:46.337Z,39.47
2022-08-17T18:24:14.093Z,39.72
2022-08-17T18:27:08.412Z,39.94
2022-08-17T18:29:44.743Z,40.52
2022-08-17T18:32:37.212Z,40.36
2022-08-17T18:35:10.222Z,41.03
2022-08-17T18:37:45.523Z,41.05
2022-08-17T18:40:21.082Z,41.49
2022-08-17T18:43:13.847Z,42.13
2022-08-17T18:45:50.028Z,42.23
2022-08-17T18:48:58.994Z,42.02
2022-08-17T18:51:42.383Z,41.31
2022-08-17T18:54:24.593Z,42.02
2022-08-17T18:56:59.867Z,42.52
2022-08-17T18:59:48.160Z,41.72
2022-08-17T19:05:27.734Z,42.94
2022-08-17T19:08:13.773Z,43.48
2022-08-17T19:10:45.861Z,43.87
2022-08-17T19:13:41.943Z,43.61
2022-08-17T19:17:05.851Z,43.74
2022-08-17T19:20:12.732Z,44.30
2022-08-17T19:23:29.337Z,44.09
2022-08-17T19:26:02.365Z,44.47
2022-08-17T19:28:48.605Z,44.65
2022-08-17T19:31:27.860Z,44.36
2022-08-17T19:33:57.042Z,43.22
2022-08-17T19:36:31.090Z,44.90
2022-08-17T19:39:51.664Z,45.01
2022-08-17T19:42:55.302Z,48.42
2022-08-17T19:46:19.318Z,44.10
2022-08-17T19:49:15.744Z,44.89
2022-08-17T19:52:22.523Z,45.30
2022-08-17T19:55:31.927Z,46.73
2022-08-17T19:58:17.977Z,45.46
2022-08-17T20:00:51.666Z,45.46
2022-08-17T20:03:34.788Z,46.98
2022-08-17T20:06:13.101Z,46.15
2022-08-17T20:09:33.870Z,48.04
2022-08-17T20:12:30.708Z,47.47
2022-08-17T20:15:10.582Z,48.18
2022-08-17T20:17:44.946Z,47.40
2022-08-17T20:21:07.613Z,48.83
2022-08-17T20:24:18.331Z,50.38
2022-08-17T20:26:59.504Z,49.83
2022-08-17T20:30:09.283Z,50.07
2022-08-17T20:32:56.982Z,50.33
2022-08-17T20:35:39.159Z,51.15
2022-08-17T20:38:33.694Z,52.49
2022-08-17T20:41:03.851Z,52.36
2022-08-17T20:43:33.403Z,53.33
2022-08-17T20:46:38.307Z,53.28
2022-08-17T20:49:11.274Z,52.64
2022-08-17T20:52:01.614Z,55.07
2022-08-17T20:54:50.180Z,53.41
2022-08-17T20:57:47.362Z,55.28
2022-08-17T21:00:29.320Z,54.93
2022-08-17T21:03:23.872Z,53.39
2022-08-17T21:06:15.331Z,55.29
2022-08-17T21:09:17.458Z,54.54
2022-08-17T21:12:04.504Z,54.09
2022-08-17T21:15:07.010Z,55.14
2022-08-17T21:17:59.076Z,55.29
2022-08-17T21:21:06.344Z,56.76
2022-08-17T21:24:31.422Z,56.19
2022-08-17T21:27:28.286Z,56.74
2022-08-17T21:30:10.135Z,56.52
2022-08-17T21:32:41.929Z,57.18
2022-08-17T21:35:28.490Z,55.66
2022-08-17T21:38:04.317Z,56.98
2022-08-17T21:40:33.863Z,56.71
2022-08-17T21:43:32.935Z,56.27
2022-08-17T21:46:23.844Z,56.97
2022-08-17T21:48:54.406Z,57.91
2022-08-17T21:51:28.052Z,57.58
2022-08-17T21:54:04.461Z,59.19
2022-08-17T21:56:40.577Z,59.21
2022-08-17T21:59:19.440Z,57.76
2022-08-17T22:02:19.361Z,60.37
2022-08-17T22:05:06.726Z,58.48
2022-08-17T22:08:06.394Z,59.16
2022-08-17T22:10:45.675Z,60.44
2022-08-17T22:13:29.633Z,59.70
2022-08-17T22:16:29.543Z,59.99
2022-08-17T22:18:59.193Z,58.89
2022-08-17T22:21:26.725Z,61.31
2022-08-17T22:24:22.587Z,59.84
2022-08-17T22:27:11.097Z,59.93
2022-08-17T22:29:59.545Z,59.57
2022-08-17T22:32:46.426Z,61.79
2022-08-17T22:35:41.114Z,62.15
2022-08-17T22:38:20.393Z,59.86
2022-08-17T22:40:55.741Z,61.62
2022-08-17T22:43:28.568Z,64.25
2022-08-17T22:45:59.846Z,61.89
2022-08-17T22:48:30.322Z,63.08
2022-08-17T22:51:12.874Z,61.79
2022-08-17T22:54:36.429Z,63.24
2022-08-17T22:57:23.760Z,62.16
2022-08-17T22:59:55.695Z,62.09
2022-08-17T23:02:33.753Z,64.03
2022-08-17T23:05:16.652Z,63.92
2022-08-17T23:07:46.643Z,62.47
2022-08-17T23:10:14.969Z,62.96
2022-08-17T23:12:42.052Z,64.01
2022-08-17T23:15:17.916Z,63.07
2022-08-17T23:17:46.267Z,64.05
2022-08-17T23:20:17.433Z,65.72
2022-08-17T23:22:51.921Z,64.91
2022-08-17T23:25:31.379Z,65.14
2022-08-17T23:28:03.563Z,63.50
2022-08-17T23:30:41.082Z,66.81
2022-08-17T23:33:33.605Z,65.06
2022-08-17T23:36:01.795Z,65.74
2022-08-17T23:38:28.914Z,64.26
2022-08-17T23:40:59.895Z,64.35
2022-08-17T23:43:28.326Z,64.36
2022-08-17T23:45:59.547Z,63.90
2022-08-17T23:48:35.454Z,66.13
2022-08-17T23:51:20.181Z,65.36
2022-08-17T23:54:07.216Z,65.28
2022-08-17T23:56:41.986Z,67.00
2022-08-17T23:59:09.395Z,64.46
